sensor_id;sensor_type;location;lat;lon;timestamp;P1;durP1;ratioP1;P2;durP2;ratioP2
39674;SDS011;27790;50.840;4.386;2024-01-15T00:01:14;38.28;;;16.20;;
39674;SDS011;27790;50.840;4.386;2024-01-15T00:03:39;32.92;;;14.63;;
39674;SDS011;27790;50.840;4.386;2024-01-15T00:06:05;32.90;;;15.30;;
39674;SDS011;27790;50.840;4.386;2024-01-15T00:08:31;30.98;;;14.60;;
39674;SDS011;27790;50.840;4.386;2024-01-15T00:10:56;31.17;;;14.05;;
39674;SDS011;27790;50.840;4.386;2024-01-15T00:13:22;36.15;;;14.40;;
39674;SDS011;27790;50.840;4.386;2024-01-15T00:15:47;32.30;;;13.63;;
39674;SDS011;27790;50.840;4.386;2024-01-15T00:18:13;30.98;;;14.45;;
39674;SDS011;27790;50.840;4.386;2024-01-15T00:20:39;37.10;;;14.02;;
39674;SDS011;27790;50.840;4.386;2024-01-15T00:23:04;25.88;;;12.82;;
39674;SDS011;27790;50.840;4.386;2024-01-15T00:25:30;28.60;;;14.32;;
39674;SDS011;27790;50.840;4.386;2024-01-15T00:27:56;25.33;;;11.18;;
39674;SDS011;27790;50.840;4.386;2024-01-15T00:30:21;33.88;;;12.82;;
39674;SDS011;27790;50.840;4.386;2024-01-15T00:32:47;29.63;;;13.30;;
39674;SDS011;27790;50.840;4.386;2024-01-15T00:35:12;28.90;;;11.38;;
39674;SDS011;27790;50.840;4.386;2024-01-15T00:37:38;21.85;;;11.75;;
39674;SDS011;27790;50.840;4.386;2024-01-15T00:40:04;27.58;;;10.73;;
39674;SDS011;27790;50.840;4.386;2024-01-15T00:42:30;23.55;;;10.75;;
39674;SDS011;27790;50.840;4.386;2024-01-15T00:44:56;26.40;;;13.43;;
39674;SDS011;27790;50.840;4.386;2024-01-15T00:47:21;23.13;;;11.68;;
39674;SDS011;27790;50.840;4.386;2024-01-15T00:49:47;21.48;;;10.77;;
39674;SDS011;27790;50.840;4.386;2024-01-15T00:52:12;25.40;;;10.68;;
39674;SDS011;27790;50.840;4.386;2024-01-15T00:54:38;25.23;;;11.23;;
39674;SDS011;27790;50.840;4.386;2024-01-15T00:57:05;22.70;;;9.55;;
39674;SDS011;27790;50.840;4.386;2024-01-15T00:59:30;19.48;;;8.80;;
39674;SDS011;27790;50.840;4.386;2024-01-15T01:01:56;20.60;;;9.95;;
39674;SDS011;27790;50.840;4.386;2024-01-15T01:04:21;22.88;;;9.77;;
39674;SDS011;27790;50.840;4.386;2024-01-15T01:06:47;17.52;;;8.30;;
39674;SDS011;27790;50.840;4.386;2024-01-15T01:09:13;17.38;;;8.75;;
39674;SDS011;27790;50.840;4.386;2024-01-15T01:11:38;14.73;;;8.30;;
39674;SDS011;27790;50.840;4.386;2024-01-15T01:14:04;19.27;;;8.30;;
39674;SDS011;27790;50.840;4.386;2024-01-15T01:16:30;14.98;;;7.18;;
39674;SDS011;27790;50.840;4.386;2024-01-15T01:18:56;12.30;;;6.85;;
39674;SDS011;27790;50.840;4.386;2024-01-15T01:21:22;15.90;;;7.32;;
39674;SDS011;27790;50.840;4.386;2024-01-15T01:23:47;11.68;;;6.13;;
39674;SDS011;27790;50.840;4.386;2024-01-15T01:26:16;12.65;;;6.60;;
39674;SDS011;27790;50.840;4.386;2024-01-15T01:28:42;11.68;;;6.07;;
39674;SDS011;27790;50.840;4.386;2024-01-15T01:31:08;11.68;;;6.38;;
39674;SDS011;27790;50.840;4.386;2024-01-15T01:33:34;14.07;;;7.22;;
39674;SDS011;27790;50.840;4.386;2024-01-15T01:35:59;11.98;;;6.85;;
39674;SDS011;27790;50.840;4.386;2024-01-15T01:38:25;17.65;;;7.03;;
39674;SDS011;27790;50.840;4.386;2024-01-15T01:40:50;11.93;;;6.22;;
39674;SDS011;27790;50.840;4.386;2024-01-15T01:43:16;12.10;;;7.05;;
39674;SDS011;27790;50.840;4.386;2024-01-15T01:45:41;14.65;;;6.38;;
39674;SDS011;27790;50.840;4.386;2024-01-15T01:48:07;16.90;;;6.60;;
39674;SDS011;27790;50.840;4.386;2024-01-15T01:50:32;13.40;;;6.82;;
39674;SDS011;27790;50.840;4.386;2024-01-15T01:52:59;11.35;;;6.05;;
39674;SDS011;27790;50.840;4.386;2024-01-15T01:55:26;13.45;;;6.50;;
39674;SDS011;27790;50.840;4.386;2024-01-15T01:57:54;11.95;;;6.43;;
39674;SDS011;27790;50.840;4.386;2024-01-15T02:00:20;12.27;;;6.15;;
39674;SDS011;27790;50.840;4.386;2024-01-15T02:02:46;10.73;;;5.32;;
39674;SDS011;27790;50.840;4.386;2024-01-15T02:05:12;8.23;;;5.78;;
39674;SDS011;27790;50.840;4.386;2024-01-15T02:07:39;7.82;;;5.45;;
39674;SDS011;27790;50.840;4.386;2024-01-15T02:10:05;8.85;;;4.68;;
39674;SDS011;27790;50.840;4.386;2024-01-15T02:12:31;8.63;;;4.65;;
39674;SDS011;27790;50.840;4.386;2024-01-15T02:14:57;10.25;;;5.50;;
39674;SDS011;27790;50.840;4.386;2024-01-15T02:17:22;8.05;;;3.80;;
39674;SDS011;27790;50.840;4.386;2024-01-15T02:19:49;9.32;;;4.95;;
39674;SDS011;27790;50.840;4.386;2024-01-15T02:22:15;7.45;;;4.18;;
39674;SDS011;27790;50.840;4.386;2024-01-15T02:24:40;7.40;;;4.00;;
39674;SDS011;27790;50.840;4.386;2024-01-15T02:27:06;4.85;;;3.13;;
39674;SDS011;27790;50.840;4.386;2024-01-15T02:29:31;7.47;;;4.00;;
39674;SDS011;27790;50.840;4.386;2024-01-15T02:31:57;6.65;;;3.70;;
39674;SDS011;27790;50.840;4.386;2024-01-15T02:34:23;5.47;;;3.50;;
39674;SDS011;27790;50.840;4.386;2024-01-15T02:36:48;5.93;;;3.30;;
39674;SDS011;27790;50.840;4.386;2024-01-15T02:39:14;4.95;;;3.42;;
39674;SDS011;27790;50.840;4.386;2024-01-15T02:41:39;6.95;;;3.70;;
39674;SDS011;27790;50.840;4.386;2024-01-15T02:44:05;4.90;;;3.53;;
39674;SDS011;27790;50.840;4.386;2024-01-15T02:46:30;9.93;;;4.72;;
39674;SDS011;27790;50.840;4.386;2024-01-15T02:48:56;10.35;;;5.07;;
39674;SDS011;27790;50.840;4.386;2024-01-15T02:51:21;7.97;;;5.38;;
39674;SDS011;27790;50.840;4.386;2024-01-15T02:53:48;8.60;;;5.05;;
39674;SDS011;27790;50.840;4.386;2024-01-15T02:56:15;10.93;;;6.35;;
39674;SDS011;27790;50.840;4.386;2024-01-15T02:58:40;12.00;;;5.85;;
39674;SDS011;27790;50.840;4.386;2024-01-15T03:01:06;9.23;;;5.63;;
39674;SDS011;27790;50.840;4.386;2024-01-15T03:03:31;11.05;;;6.97;;
39674;SDS011;27790;50.840;4.386;2024-01-15T03:05:58;14.32;;;7.32;;
39674;SDS011;27790;50.840;4.386;2024-01-15T03:08:23;17.05;;;7.80;;
39674;SDS011;27790;50.840;4.386;2024-01-15T03:10:49;16.00;;;8.68;;
39674;SDS011;27790;50.840;4.386;2024-01-15T03:13:15;13.30;;;7.38;;
39674;SDS011;27790;50.840;4.386;2024-01-15T03:15:41;17.13;;;9.55;;
39674;SDS011;27790;50.840;4.386;2024-01-15T03:18:07;15.27;;;9.15;;
39674;SDS011;27790;50.840;4.386;2024-01-15T03:20:33;19.80;;;10.02;;
39674;SDS011;27790;50.840;4.386;2024-01-15T03:22:58;19.67;;;9.38;;
39674;SDS011;27790;50.840;4.386;2024-01-15T03:25:24;23.40;;;9.55;;
39674;SDS011;27790;50.840;4.386;2024-01-15T03:27:49;15.93;;;8.90;;
39674;SDS011;27790;50.840;4.386;2024-01-15T03:30:15;19.48;;;8.90;;
39674;SDS011;27790;50.840;4.386;2024-01-15T03:32:41;20.52;;;8.52;;
39674;SDS011;27790;50.840;4.386;2024-01-15T03:35:06;18.02;;;9.25;;
39674;SDS011;27790;50.840;4.386;2024-01-15T03:37:32;16.67;;;9.27;;
39674;SDS011;27790;50.840;4.386;2024-01-15T03:39:57;21.00;;;9.50;;
39674;SDS011;27790;50.840;4.386;2024-01-15T03:42:23;18.13;;;8.93;;
39674;SDS011;27790;50.840;4.386;2024-01-15T03:44:49;17.02;;;9.13;;
39674;SDS011;27790;50.840;4.386;2024-01-15T03:47:14;22.45;;;10.55;;
39674;SDS011;27790;50.840;4.386;2024-01-15T03:49:40;19.70;;;10.73;;
39674;SDS011;27790;50.840;4.386;2024-01-15T03:52:05;22.83;;;10.93;;
39674;SDS011;27790;50.840;4.386;2024-01-15T03:54:31;23.80;;;11.05;;
39674;SDS011;27790;50.840;4.386;2024-01-15T03:56:56;25.67;;;11.27;;
39674;SDS011;27790;50.840;4.386;2024-01-15T03:59:22;25.33;;;11.05;;
39674;SDS011;27790;50.840;4.386;2024-01-15T04:01:48;24.42;;;11.45;;
39674;SDS011;27790;50.840;4.386;2024-01-15T04:04:15;21.15;;;10.82;;
39674;SDS011;27790;50.840;4.386;2024-01-15T04:06:41;22.55;;;11.77;;
39674;SDS011;27790;50.840;4.386;2024-01-15T04:09:07;22.40;;;10.93;;
39674;SDS011;27790;50.840;4.386;2024-01-15T04:11:32;26.45;;;11.55;;
39674;SDS011;27790;50.840;4.386;2024-01-15T04:13:58;31.73;;;12.93;;
39674;SDS011;27790;50.840;4.386;2024-01-15T04:16:23;23.27;;;11.57;;
39674;SDS011;27790;50.840;4.386;2024-01-15T04:18:49;28.88;;;11.80;;
39674;SDS011;27790;50.840;4.386;2024-01-15T04:21:14;26.08;;;12.25;;
39674;SDS011;27790;50.840;4.386;2024-01-15T04:23:42;26.48;;;11.35;;
39674;SDS011;27790;50.840;4.386;2024-01-15T04:26:08;26.05;;;13.02;;
39674;SDS011;27790;50.840;4.386;2024-01-15T04:28:33;22.45;;;12.60;;
39674;SDS011;27790;50.840;4.386;2024-01-15T04:30:59;23.67;;;12.15;;
39674;SDS011;27790;50.840;4.386;2024-01-15T04:33:24;23.05;;;12.05;;
39674;SDS011;27790;50.840;4.386;2024-01-15T04:35:50;25.75;;;12.65;;
39674;SDS011;27790;50.840;4.386;2024-01-15T04:38:15;25.83;;;12.13;;
39674;SDS011;27790;50.840;4.386;2024-01-15T04:40:41;21.88;;;11.57;;
39674;SDS011;27790;50.840;4.386;2024-01-15T04:43:06;23.08;;;12.57;;
39674;SDS011;27790;50.840;4.386;2024-01-15T04:45:32;25.00;;;12.45;;
39674;SDS011;27790;50.840;4.386;2024-01-15T04:47:57;22.80;;;11.38;;
39674;SDS011;27790;50.840;4.386;2024-01-15T04:50:23;20.75;;;12.60;;
39674;SDS011;27790;50.840;4.386;2024-01-15T04:52:49;20.25;;;10.00;;
39674;SDS011;27790;50.840;4.386;2024-01-15T04:55:15;21.20;;;10.25;;
39674;SDS011;27790;50.840;4.386;2024-01-15T04:57:41;17.73;;;8.90;;
39674;SDS011;27790;50.840;4.386;2024-01-15T05:00:06;18.88;;;9.82;;
39674;SDS011;27790;50.840;4.386;2024-01-15T05:02:32;20.20;;;9.45;;
39674;SDS011;27790;50.840;4.386;2024-01-15T05:04:58;13.30;;;8.10;;
39674;SDS011;27790;50.840;4.386;2024-01-15T05:07:24;15.60;;;8.23;;
39674;SDS011;27790;50.840;4.386;2024-01-15T05:09:49;14.25;;;8.00;;
39674;SDS011;27790;50.840;4.386;2024-01-15T05:12:15;16.25;;;6.53;;
39674;SDS011;27790;50.840;4.386;2024-01-15T05:14:40;13.13;;;6.50;;
39674;SDS011;27790;50.840;4.386;2024-01-15T05:17:06;8.45;;;5.68;;
39674;SDS011;27790;50.840;4.386;2024-01-15T05:19:31;10.30;;;4.95;;
39674;SDS011;27790;50.840;4.386;2024-01-15T05:21:57;6.22;;;4.30;;
39674;SDS011;27790;50.840;4.386;2024-01-15T05:24:22;7.93;;;3.45;;
39674;SDS011;27790;50.840;4.386;2024-01-15T05:26:48;4.50;;;3.15;;
39674;SDS011;27790;50.840;4.386;2024-01-15T05:29:13;5.30;;;2.50;;
39674;SDS011;27790;50.840;4.386;2024-01-15T05:31:39;9.27;;;3.30;;
39674;SDS011;27790;50.840;4.386;2024-01-15T05:34:04;4.50;;;2.70;;
39674;SDS011;27790;50.840;4.386;2024-01-15T05:36:30;7.28;;;2.70;;
39674;SDS011;27790;50.840;4.386;2024-01-15T05:38:55;7.20;;;2.60;;
39674;SDS011;27790;50.840;4.386;2024-01-15T05:41:21;6.47;;;2.80;;
39674;SDS011;27790;50.840;4.386;2024-01-15T05:43:47;5.85;;;2.75;;
39674;SDS011;27790;50.840;4.386;2024-01-15T05:46:12;6.35;;;2.78;;
39674;SDS011;27790;50.840;4.386;2024-01-15T05:48:38;6.68;;;3.92;;
39674;SDS011;27790;50.840;4.386;2024-01-15T05:51:04;7.57;;;2.42;;
39674;SDS011;27790;50.840;4.386;2024-01-15T05:53:29;10.82;;;2.50;;
39674;SDS011;27790;50.840;4.386;2024-01-15T05:55:55;8.27;;;2.85;;
39674;SDS011;27790;50.840;4.386;2024-01-15T05:58:21;6.63;;;3.13;;
39674;SDS011;27790;50.840;4.386;2024-01-15T06:00:47;4.78;;;2.25;;
39674;SDS011;27790;50.840;4.386;2024-01-15T06:03:14;3.53;;;1.40;;
39674;SDS011;27790;50.840;4.386;2024-01-15T06:05:40;4.78;;;2.28;;
39674;SDS011;27790;50.840;4.386;2024-01-15T06:08:06;4.00;;;1.42;;
39674;SDS011;27790;50.840;4.386;2024-01-15T06:10:31;3.25;;;1.75;;
39674;SDS011;27790;50.840;4.386;2024-01-15T06:12:57;2.85;;;1.55;;
39674;SDS011;27790;50.840;4.386;2024-01-15T06:15:22;3.75;;;1.38;;
39674;SDS011;27790;50.840;4.386;2024-01-15T06:17:48;7.18;;;1.55;;
39674;SDS011;27790;50.840;4.386;2024-01-15T06:20:13;8.00;;;1.42;;
39674;SDS011;27790;50.840;4.386;2024-01-15T06:22:39;4.13;;;1.20;;
39674;SDS011;27790;50.840;4.386;2024-01-15T06:25:06;6.93;;;1.58;;
39674;SDS011;27790;50.840;4.386;2024-01-15T06:27:32;4.88;;;1.35;;
39674;SDS011;27790;50.840;4.386;2024-01-15T06:29:58;2.88;;;1.38;;
39674;SDS011;27790;50.840;4.386;2024-01-15T06:32:23;8.27;;;1.45;;
39674;SDS011;27790;50.840;4.386;2024-01-15T06:34:49;4.03;;;1.80;;
39674;SDS011;27790;50.840;4.386;2024-01-15T06:37:14;5.88;;;1.63;;
39674;SDS011;27790;50.840;4.386;2024-01-15T06:39:40;4.55;;;2.35;;
39674;SDS011;27790;50.840;4.386;2024-01-15T06:42:06;2.85;;;1.83;;
39674;SDS011;27790;50.840;4.386;2024-01-15T06:44:31;8.10;;;2.47;;
39674;SDS011;27790;50.840;4.386;2024-01-15T06:46:57;3.80;;;2.45;;
39674;SDS011;27790;50.840;4.386;2024-01-15T06:49:27;7.78;;;2.42;;
39674;SDS011;27790;50.840;4.386;2024-01-15T06:51:55;10.73;;;2.65;;
39674;SDS011;27790;50.840;4.386;2024-01-15T06:54:21;7.80;;;3.25;;
39674;SDS011;27790;50.840;4.386;2024-01-15T06:56:47;7.65;;;2.63;;
39674;SDS011;27790;50.840;4.386;2024-01-15T06:59:12;6.15;;;2.90;;
39674;SDS011;27790;50.840;4.386;2024-01-15T07:01:38;9.27;;;3.75;;
39674;SDS011;27790;50.840;4.386;2024-01-15T07:04:03;12.43;;;4.20;;
39674;SDS011;27790;50.840;4.386;2024-01-15T07:06:29;11.15;;;4.18;;
39674;SDS011;27790;50.840;4.386;2024-01-15T07:08:55;13.15;;;5.25;;
39674;SDS011;27790;50.840;4.386;2024-01-15T07:11:21;9.68;;;4.63;;
39674;SDS011;27790;50.840;4.386;2024-01-15T07:13:47;6.35;;;4.30;;
39674;SDS011;27790;50.840;4.386;2024-01-15T07:16:13;9.43;;;4.28;;
39674;SDS011;27790;50.840;4.386;2024-01-15T07:18:38;9.57;;;4.90;;
39674;SDS011;27790;50.840;4.386;2024-01-15T07:21:04;11.57;;;4.00;;
39674;SDS011;27790;50.840;4.386;2024-01-15T07:23:30;12.02;;;4.53;;
39674;SDS011;27790;50.840;4.386;2024-01-15T07:25:56;7.72;;;3.88;;
39674;SDS011;27790;50.840;4.386;2024-01-15T07:28:22;9.02;;;3.83;;
39674;SDS011;27790;50.840;4.386;2024-01-15T07:30:48;8.10;;;4.00;;
39674;SDS011;27790;50.840;4.386;2024-01-15T07:33:13;7.50;;;3.72;;
39674;SDS011;27790;50.840;4.386;2024-01-15T07:35:39;4.70;;;3.78;;
39674;SDS011;27790;50.840;4.386;2024-01-15T07:38:04;9.02;;;4.47;;
39674;SDS011;27790;50.840;4.386;2024-01-15T07:40:30;6.03;;;4.43;;
39674;SDS011;27790;50.840;4.386;2024-01-15T07:42:55;7.40;;;4.38;;
39674;SDS011;27790;50.840;4.386;2024-01-15T07:45:21;9.85;;;4.60;;
39674;SDS011;27790;50.840;4.386;2024-01-15T07:47:46;9.20;;;4.60;;
39674;SDS011;27790;50.840;4.386;2024-01-15T07:50:12;6.93;;;4.90;;
39674;SDS011;27790;50.840;4.386;2024-01-15T07:52:39;8.88;;;5.38;;
39674;SDS011;27790;50.840;4.386;2024-01-15T07:55:06;20.45;;;7.45;;
39674;SDS011;27790;50.840;4.386;2024-01-15T07:57:32;11.15;;;5.70;;
39674;SDS011;27790;50.840;4.386;2024-01-15T07:59:58;10.23;;;5.32;;
39674;SDS011;27790;50.840;4.386;2024-01-15T08:02:23;14.63;;;6.32;;
39674;SDS011;27790;50.840;4.386;2024-01-15T08:04:49;13.93;;;5.13;;
39674;SDS011;27790;50.840;4.386;2024-01-15T08:07:14;7.32;;;6.10;;
39674;SDS011;27790;50.840;4.386;2024-01-15T08:09:40;11.60;;;5.50;;
39674;SDS011;27790;50.840;4.386;2024-01-15T08:12:06;8.93;;;5.38;;
39674;SDS011;27790;50.840;4.386;2024-01-15T08:14:32;9.45;;;5.05;;
39674;SDS011;27790;50.840;4.386;2024-01-15T08:16:58;13.13;;;6.35;;
39674;SDS011;27790;50.840;4.386;2024-01-15T08:19:23;10.38;;;4.78;;
39674;SDS011;27790;50.840;4.386;2024-01-15T08:21:49;10.50;;;4.97;;
39674;SDS011;27790;50.840;4.386;2024-01-15T08:24:15;11.75;;;5.18;;
39674;SDS011;27790;50.840;4.386;2024-01-15T08:26:41;8.20;;;4.03;;
39674;SDS011;27790;50.840;4.386;2024-01-15T08:29:07;7.18;;;4.40;;
39674;SDS011;27790;50.840;4.386;2024-01-15T08:31:32;14.68;;;4.95;;
39674;SDS011;27790;50.840;4.386;2024-01-15T08:33:58;6.43;;;3.28;;
39674;SDS011;27790;50.840;4.386;2024-01-15T08:36:24;16.27;;;4.43;;
39674;SDS011;27790;50.840;4.386;2024-01-15T08:38:50;11.00;;;4.07;;
39674;SDS011;27790;50.840;4.386;2024-01-15T08:41:16;7.90;;;3.38;;
39674;SDS011;27790;50.840;4.386;2024-01-15T08:43:41;10.02;;;2.83;;
39674;SDS011;27790;50.840;4.386;2024-01-15T08:46:07;11.65;;;4.65;;
39674;SDS011;27790;50.840;4.386;2024-01-15T08:48:32;9.00;;;3.63;;
39674;SDS011;27790;50.840;4.386;2024-01-15T08:50:58;9.20;;;2.63;;
39674;SDS011;27790;50.840;4.386;2024-01-15T08:53:23;8.32;;;2.15;;
39674;SDS011;27790;50.840;4.386;2024-01-15T08:55:49;11.15;;;2.40;;
39674;SDS011;27790;50.840;4.386;2024-01-15T08:58:15;4.65;;;2.78;;
39674;SDS011;27790;50.840;4.386;2024-01-15T09:00:40;6.32;;;2.10;;
39674;SDS011;27790;50.840;4.386;2024-01-15T09:03:06;6.65;;;1.88;;
39674;SDS011;27790;50.840;4.386;2024-01-15T09:05:33;8.90;;;2.28;;
39674;SDS011;27790;50.840;4.386;2024-01-15T09:07:59;6.97;;;2.58;;
39674;SDS011;27790;50.840;4.386;2024-01-15T09:10:24;10.85;;;2.85;;
39674;SDS011;27790;50.840;4.386;2024-01-15T09:12:50;10.57;;;2.00;;
39674;SDS011;27790;50.840;4.386;2024-01-15T09:15:15;9.45;;;1.92;;
39674;SDS011;27790;50.840;4.386;2024-01-15T09:17:41;12.45;;;2.85;;
39674;SDS011;27790;50.840;4.386;2024-01-15T09:20:08;15.25;;;2.95;;
39674;SDS011;27790;50.840;4.386;2024-01-15T09:22:34;8.77;;;3.10;;
39674;SDS011;27790;50.840;4.386;2024-01-15T09:25:00;9.63;;;2.50;;
39674;SDS011;27790;50.840;4.386;2024-01-15T09:27:26;8.02;;;1.98;;
39674;SDS011;27790;50.840;4.386;2024-01-15T09:29:52;12.70;;;3.40;;
39674;SDS011;27790;50.840;4.386;2024-01-15T09:32:18;6.47;;;1.90;;
39674;SDS011;27790;50.840;4.386;2024-01-15T09:34:43;8.80;;;1.90;;
39674;SDS011;27790;50.840;4.386;2024-01-15T09:37:11;6.85;;;3.17;;
39674;SDS011;27790;50.840;4.386;2024-01-15T09:39:37;11.15;;;2.33;;
39674;SDS011;27790;50.840;4.386;2024-01-15T09:42:02;7.53;;;1.60;;
39674;SDS011;27790;50.840;4.386;2024-01-15T09:44:28;7.50;;;2.03;;
39674;SDS011;27790;50.840;4.386;2024-01-15T09:46:55;7.38;;;1.85;;
39674;SDS011;27790;50.840;4.386;2024-01-15T09:49:22;5.75;;;1.45;;
39674;SDS011;27790;50.840;4.386;2024-01-15T09:51:48;14.05;;;2.22;;
39674;SDS011;27790;50.840;4.386;2024-01-15T09:54:13;6.07;;;1.92;;
39674;SDS011;27790;50.840;4.386;2024-01-15T09:56:42;6.15;;;1.60;;
39674;SDS011;27790;50.840;4.386;2024-01-15T09:59:10;9.40;;;1.98;;
39674;SDS011;27790;50.840;4.386;2024-01-15T10:01:38;8.60;;;1.60;;
39674;SDS011;27790;50.840;4.386;2024-01-15T10:04:05;7.88;;;1.83;;
39674;SDS011;27790;50.840;4.386;2024-01-15T10:06:31;6.40;;;1.40;;
39674;SDS011;27790;50.840;4.386;2024-01-15T10:08:58;5.15;;;2.47;;
39674;SDS011;27790;50.840;4.386;2024-01-15T10:11:24;6.43;;;2.40;;
39674;SDS011;27790;50.840;4.386;2024-01-15T10:13:49;9.38;;;1.60;;
39674;SDS011;27790;50.840;4.386;2024-01-15T10:16:19;11.30;;;2.50;;
39674;SDS011;27790;50.840;4.386;2024-01-15T10:18:46;3.88;;;1.95;;
39674;SDS011;27790;50.840;4.386;2024-01-15T10:21:12;7.70;;;1.65;;
39674;SDS011;27790;50.840;4.386;2024-01-15T10:23:40;8.95;;;1.52;;
39674;SDS011;27790;50.840;4.386;2024-01-15T10:26:06;13.82;;;2.97;;
39674;SDS011;27790;50.840;4.386;2024-01-15T10:28:32;4.88;;;2.05;;
39674;SDS011;27790;50.840;4.386;2024-01-15T10:30:58;12.25;;;2.05;;
39674;SDS011;27790;50.840;4.386;2024-01-15T10:33:25;10.40;;;2.40;;
39674;SDS011;27790;50.840;4.386;2024-01-15T10:35:57;5.95;;;1.55;;
39674;SDS011;27790;50.840;4.386;2024-01-15T10:38:25;9.65;;;1.58;;
39674;SDS011;27790;50.840;4.386;2024-01-15T10:40:54;8.27;;;2.05;;
39674;SDS011;27790;50.840;4.386;2024-01-15T10:43:21;7.20;;;2.00;;
39674;SDS011;27790;50.840;4.386;2024-01-15T10:45:48;7.90;;;2.17;;
39674;SDS011;27790;50.840;4.386;2024-01-15T10:48:18;6.22;;;1.60;;
39674;SDS011;27790;50.840;4.386;2024-01-15T10:50:45;11.15;;;2.40;;
39674;SDS011;27790;50.840;4.386;2024-01-15T10:53:16;3.85;;;1.50;;
39674;SDS011;27790;50.840;4.386;2024-01-15T10:55:42;7.47;;;1.60;;
39674;SDS011;27790;50.840;4.386;2024-01-15T10:58:08;4.00;;;1.67;;
39674;SDS011;27790;50.840;4.386;2024-01-15T11:00:35;7.18;;;2.08;;
39674;SDS011;27790;50.840;4.386;2024-01-15T11:03:02;11.55;;;2.22;;
39674;SDS011;27790;50.840;4.386;2024-01-15T11:05:33;7.65;;;1.85;;
39674;SDS011;27790;50.840;4.386;2024-01-15T11:07:59;2.20;;;1.67;;
39674;SDS011;27790;50.840;4.386;2024-01-15T11:10:45;5.85;;;1.92;;
39674;SDS011;27790;50.840;4.386;2024-01-15T11:13:14;10.77;;;1.70;;
39674;SDS011;27790;50.840;4.386;2024-01-15T11:18:30;8.63;;;2.72;;
39674;SDS011;27790;50.840;4.386;2024-01-15T11:23:44;7.00;;;1.75;;
39674;SDS011;27790;50.840;4.386;2024-01-15T11:29:03;4.57;;;1.88;;
39674;SDS011;27790;50.840;4.386;2024-01-15T11:31:56;8.05;;;1.60;;
39674;SDS011;27790;50.840;4.386;2024-01-15T11:34:15;4.70;;;1.73;;
39674;SDS011;27790;50.840;4.386;2024-01-15T11:41:58;3.58;;;1.05;;
39674;SDS011;27790;50.840;4.386;2024-01-15T11:44:28;9.15;;;1.58;;
39674;SDS011;27790;50.840;4.386;2024-01-15T11:47:01;7.28;;;1.50;;
39674;SDS011;27790;50.840;4.386;2024-01-15T11:52:02;16.08;;;1.40;;
39674;SDS011;27790;50.840;4.386;2024-01-15T11:54:31;8.55;;;1.92;;
39674;SDS011;27790;50.840;4.386;2024-01-15T11:57:00;9.45;;;2.05;;
39674;SDS011;27790;50.840;4.386;2024-01-15T11:59:34;7.63;;;1.25;;
39674;SDS011;27790;50.840;4.386;2024-01-15T12:02:00;3.38;;;1.45;;
39674;SDS011;27790;50.840;4.386;2024-01-15T12:04:26;5.97;;;1.95;;
39674;SDS011;27790;50.840;4.386;2024-01-15T12:06:52;5.80;;;1.30;;
39674;SDS011;27790;50.840;4.386;2024-01-15T12:09:21;4.82;;;1.30;;
39674;SDS011;27790;50.840;4.386;2024-01-15T12:11:51;8.70;;;1.33;;
39674;SDS011;27790;50.840;4.386;2024-01-15T12:16:56;4.72;;;1.70;;
39674;SDS011;27790;50.840;4.386;2024-01-15T12:19:22;2.63;;;1.30;;
39674;SDS011;27790;50.840;4.386;2024-01-15T12:21:48;6.47;;;1.80;;
39674;SDS011;27790;50.840;4.386;2024-01-15T12:24:16;4.50;;;1.33;;
39674;SDS011;27790;50.840;4.386;2024-01-15T12:26:42;12.80;;;2.20;;
39674;SDS011;27790;50.840;4.386;2024-01-15T12:29:08;8.07;;;2.10;;
39674;SDS011;27790;50.840;4.386;2024-01-15T12:31:36;8.95;;;1.80;;
39674;SDS011;27790;50.840;4.386;2024-01-15T12:34:02;8.30;;;2.10;;
39674;SDS011;27790;50.840;4.386;2024-01-15T12:36:30;8.68;;;2.03;;
39674;SDS011;27790;50.840;4.386;2024-01-15T12:38:59;1.77;;;1.00;;
39674;SDS011;27790;50.840;4.386;2024-01-15T12:41:24;13.65;;;1.85;;
39674;SDS011;27790;50.840;4.386;2024-01-15T12:43:50;6.93;;;2.00;;
39674;SDS011;27790;50.840;4.386;2024-01-15T12:46:16;6.45;;;1.98;;
39674;SDS011;27790;50.840;4.386;2024-01-15T12:48:41;6.25;;;1.30;;
39674;SDS011;27790;50.840;4.386;2024-01-15T12:51:07;14.18;;;2.38;;
39674;SDS011;27790;50.840;4.386;2024-01-15T12:53:33;8.38;;;1.45;;
39674;SDS011;27790;50.840;4.386;2024-01-15T12:55:59;3.92;;;1.33;;
39674;SDS011;27790;50.840;4.386;2024-01-15T12:58:25;7.35;;;1.42;;
39674;SDS011;27790;50.840;4.386;2024-01-15T13:00:50;8.63;;;1.60;;
39674;SDS011;27790;50.840;4.386;2024-01-15T13:03:16;8.10;;;1.77;;
39674;SDS011;27790;50.840;4.386;2024-01-15T13:05:41;5.25;;;0.90;;
39674;SDS011;27790;50.840;4.386;2024-01-15T13:08:07;6.25;;;1.52;;
39674;SDS011;27790;50.840;4.386;2024-01-15T13:10:33;11.38;;;1.67;;
39674;SDS011;27790;50.840;4.386;2024-01-15T13:12:58;6.35;;;2.10;;
39674;SDS011;27790;50.840;4.386;2024-01-15T13:15:24;3.70;;;1.00;;
39674;SDS011;27790;50.840;4.386;2024-01-15T13:17:49;7.00;;;1.27;;
39674;SDS011;27790;50.840;4.386;2024-01-15T13:20:15;9.13;;;2.28;;
39674;SDS011;27790;50.840;4.386;2024-01-15T13:22:40;9.45;;;1.60;;
39674;SDS011;27790;50.840;4.386;2024-01-15T13:25:08;13.63;;;3.22;;
39674;SDS011;27790;50.840;4.386;2024-01-15T13:27:34;7.25;;;1.58;;
39674;SDS011;27790;50.840;4.386;2024-01-15T13:30:02;10.57;;;2.15;;
39674;SDS011;27790;50.840;4.386;2024-01-15T13:32:29;11.23;;;2.13;;
39674;SDS011;27790;50.840;4.386;2024-01-15T13:34:55;13.10;;;1.88;;
39674;SDS011;27790;50.840;4.386;2024-01-15T13:37:21;7.95;;;1.58;;
39674;SDS011;27790;50.840;4.386;2024-01-15T13:39:49;8.25;;;1.52;;
39674;SDS011;27790;50.840;4.386;2024-01-15T13:42:16;5.50;;;1.60;;
39674;SDS011;27790;50.840;4.386;2024-01-15T13:44:42;10.63;;;1.63;;
39674;SDS011;27790;50.840;4.386;2024-01-15T13:47:07;9.00;;;2.92;;
39674;SDS011;27790;50.840;4.386;2024-01-15T13:49:33;14.10;;;2.60;;
39674;SDS011;27790;50.840;4.386;2024-01-15T13:52:00;7.72;;;2.28;;
39674;SDS011;27790;50.840;4.386;2024-01-15T13:54:28;5.68;;;1.67;;
39674;SDS011;27790;50.840;4.386;2024-01-15T13:56:56;9.10;;;2.00;;
39674;SDS011;27790;50.840;4.386;2024-01-15T13:59:21;12.68;;;2.15;;
39674;SDS011;27790;50.840;4.386;2024-01-15T14:01:48;9.20;;;2.83;;
39674;SDS011;27790;50.840;4.386;2024-01-15T14:04:13;8.38;;;2.08;;
39674;SDS011;27790;50.840;4.386;2024-01-15T14:06:39;7.93;;;1.90;;
39674;SDS011;27790;50.840;4.386;2024-01-15T14:09:04;10.88;;;2.15;;
39674;SDS011;27790;50.840;4.386;2024-01-15T14:11:30;11.35;;;1.50;;
39674;SDS011;27790;50.840;4.386;2024-01-15T14:13:56;13.50;;;1.83;;
39674;SDS011;27790;50.840;4.386;2024-01-15T14:16:22;9.15;;;1.45;;
39674;SDS011;27790;50.840;4.386;2024-01-15T14:18:47;8.15;;;1.30;;
39674;SDS011;27790;50.840;4.386;2024-01-15T14:21:13;6.97;;;1.50;;
39674;SDS011;27790;50.840;4.386;2024-01-15T14:23:39;7.03;;;1.80;;
39674;SDS011;27790;50.840;4.386;2024-01-15T14:26:05;8.85;;;2.15;;
39674;SDS011;27790;50.840;4.386;2024-01-15T14:28:30;3.95;;;1.52;;
39674;SDS011;27790;50.840;4.386;2024-01-15T14:30:56;6.32;;;1.40;;
39674;SDS011;27790;50.840;4.386;2024-01-15T14:33:25;5.35;;;1.50;;
39674;SDS011;27790;50.840;4.386;2024-01-15T14:35:51;6.72;;;1.65;;
39674;SDS011;27790;50.840;4.386;2024-01-15T14:38:16;5.68;;;1.90;;
39674;SDS011;27790;50.840;4.386;2024-01-15T14:40:42;8.35;;;1.45;;
39674;SDS011;27790;50.840;4.386;2024-01-15T14:43:09;6.15;;;1.50;;
39674;SDS011;27790;50.840;4.386;2024-01-15T14:45:35;3.35;;;1.60;;
39674;SDS011;27790;50.840;4.386;2024-01-15T14:48:00;1.92;;;1.30;;
39674;SDS011;27790;50.840;4.386;2024-01-15T14:50:26;7.15;;;1.40;;
39674;SDS011;27790;50.840;4.386;2024-01-15T14:52:51;4.13;;;1.20;;